Details for Norwegian Air Shuttle at LEAL




Go Back


Latest METAR
Local Time

LEAL 220930Z 18003KT 090V250 9999 FEW018 27/21 Q1023 NOSIG
22/09/2018, 12:01:44

Description
Results
Norwegian Air Shuttle Logo
Number of Pilots based at LEAL
0 Pilots Based here
Number of Norwegian Air Shuttle Flights Departed from LEAL
0 Flights Departed
Number of Norwegian Air Shuttle Flights Arrived at LEAL
0 Flights Arrived
Number of Norwegian Air Shuttle Schedules Departing from LEAL
9 Schedules
Number of Norwegian Air Shuttle Schedules Arriving at LEAL
9 Schedules
Number of Norwegian Air Shuttle Schedules Departing from LEAL availible today
5 Schedules Today
Number of Norwegian Air Shuttle Schedules Arriving at LEAL availible today
5 Schedules Today
Average Landing Rate at LEAL
-230 fpm
Norwegian Air Shuttle Average Landing Rate at LEAL
0 fpm
Total Fuel Purchased at LEAL by Norwegian Air Shuttle
0.00 kgs / 0.00 lbs

Pilots Based at LEAL


Pilot ID
Pilot Name
Pilot Rank
No. of Flights
No. of Flying Hours
There are no pilots assigned to this hub!   Will you be the first?
Content